createdAt,value
2022-09-20T00:06:31.636Z,101350.00
2022-09-20T00:16:54.627Z,101360.00
2022-09-20T00:27:16.264Z,101365.00
2022-09-20T00:37:42.201Z,101368.00
2022-09-20T00:48:08.303Z,101374.00
2022-09-20T00:58:33.803Z,101375.00
2022-09-20T01:08:58.336Z,101375.00
2022-09-20T01:19:32.002Z,101377.00
2022-09-20T01:30:06.135Z,101360.00
2022-09-20T01:40:36.683Z,101377.00
2022-09-20T01:51:26.144Z,101373.00
2022-09-20T02:02:08.700Z,101385.00
2022-09-20T02:12:52.993Z,101382.00
2022-09-20T02:23:23.219Z,101382.00
2022-09-20T02:34:00.030Z,101393.00
2022-09-20T02:44:46.998Z,101406.00
2022-09-20T02:55:17.874Z,101412.00
2022-09-20T03:05:50.838Z,101405.00
2022-09-20T03:16:22.387Z,101413.00
2022-09-20T03:26:56.467Z,101425.00
2022-09-20T03:37:35.635Z,101437.00
2022-09-20T03:48:53.703Z,101432.00
2022-09-20T03:59:34.563Z,101429.00
2022-09-20T04:10:17.572Z,101444.00
2022-09-20T04:20:46.208Z,101452.00
2022-09-20T04:31:20.965Z,101452.00
2022-09-20T04:42:16.258Z,101451.00
2022-09-20T04:53:11.773Z,101453.00
2022-09-20T05:03:59.927Z,101459.00
2022-09-20T05:14:46.904Z,101481.00
2022-09-20T05:25:52.033Z,101486.00
2022-09-20T05:36:23.517Z,101506.00
2022-09-20T05:46:57.094Z,101512.00
2022-09-20T05:57:33.950Z,101514.00
2022-09-20T06:08:24.344Z,101514.00
2022-09-20T06:18:56.493Z,101535.00
2022-09-20T06:29:30.156Z,101535.00
2022-09-20T06:40:18.461Z,101538.00
2022-09-20T06:50:40.382Z,101530.00
2022-09-20T07:01:03.269Z,101547.00
2022-09-20T07:11:25.339Z,101562.00
2022-09-20T07:21:48.445Z,101579.00
2022-09-20T07:32:09.611Z,101579.00
2022-09-20T07:42:32.451Z,101583.00
2022-09-20T07:52:57.199Z,101593.00
2022-09-20T08:03:20.069Z,101617.00
2022-09-20T08:24:27.152Z,101614.00
2022-09-20T08:34:49.593Z,101627.00
2022-09-20T08:45:34.414Z,101620.00
2022-09-20T08:55:57.865Z,101638.00
2022-09-20T09:06:24.890Z,101632.00
2022-09-20T09:16:46.450Z,101634.00
2022-09-20T09:27:16.635Z,101643.00
2022-09-20T09:37:38.934Z,101646.00
2022-09-20T09:48:02.881Z,101635.00
2022-09-20T09:58:36.685Z,101650.00
2022-09-20T10:09:17.977Z,101628.00
2022-09-20T10:19:54.301Z,101633.00
2022-09-20T10:30:19.866Z,101653.00
2022-09-20T10:41:07.592Z,101637.00
2022-09-20T10:51:43.231Z,101653.00
2022-09-20T11:02:17.012Z,101676.00
2022-09-20T11:12:43.783Z,101694.00
2022-09-20T11:23:15.042Z,101699.00
2022-09-20T11:33:43.214Z,101718.00
2022-09-20T11:44:08.056Z,101757.00
2022-09-20T11:54:49.739Z,101746.00
2022-09-20T12:05:27.086Z,101741.00
2022-09-20T12:16:00.026Z,101734.00
2022-09-20T12:26:39.155Z,101744.00
2022-09-20T12:37:24.911Z,101715.00
2022-09-20T12:47:55.704Z,101713.00
2022-09-20T12:58:32.894Z,101716.00
2022-09-20T13:08:59.106Z,101720.00
2022-09-20T13:19:25.930Z,101730.00
2022-09-20T13:29:47.923Z,101757.00
2022-09-20T13:40:19.631Z,101764.00
2022-09-20T13:50:46.331Z,101762.00
2022-09-20T14:01:29.022Z,101773.00
2022-09-20T14:11:51.152Z,101777.00
2022-09-20T14:22:20.255Z,101783.00
2022-09-20T14:32:48.064Z,101780.00
2022-09-20T14:43:25.110Z,101789.00
2022-09-20T14:53:47.933Z,101796.00
2022-09-20T15:04:18.766Z,101790.00
2022-09-20T15:14:41.422Z,101817.00
2022-09-20T15:25:04.682Z,101824.00
2022-09-20T15:35:26.181Z,101826.00
2022-09-20T15:45:51.491Z,101834.00
2022-09-20T15:56:17.702Z,101836.00
2022-09-20T16:06:42.145Z,101833.00
2022-09-20T16:17:03.798Z,101848.00
2022-09-20T16:27:26.754Z,101840.00
2022-09-20T16:37:48.403Z,101861.00
2022-09-20T16:48:11.589Z,101850.00
2022-09-20T16:58:33.921Z,101870.00
2022-09-20T17:08:59.200Z,101890.00
2022-09-20T17:19:22.018Z,101897.00
2022-09-20T17:29:45.451Z,101900.00
2022-09-20T17:40:10.925Z,101909.00
2022-09-20T17:50:41.149Z,101932.00
2022-09-20T18:01:12.986Z,101935.00
2022-09-20T18:11:39.538Z,101951.00
2022-09-20T18:22:01.144Z,101962.00
2022-09-20T18:32:26.877Z,101963.00
2022-09-20T18:42:51.664Z,101977.00
2022-09-20T18:53:14.572Z,101980.00
2022-09-20T19:03:51.504Z,101988.00
2022-09-20T19:14:24.397Z,101977.00
2022-09-20T19:25:01.652Z,101992.00
2022-09-20T19:35:33.510Z,102008.00
2022-09-20T19:46:03.573Z,102016.00
2022-09-20T19:56:29.762Z,102010.00
2022-09-20T20:07:00.746Z,102020.00
2022-09-20T20:17:42.286Z,102033.00
2022-09-20T20:28:03.773Z,102036.00
2022-09-20T20:38:27.908Z,102050.00
2022-09-20T20:48:49.356Z,102047.00
2022-09-20T20:59:12.252Z,102058.00
2022-09-20T21:09:33.764Z,102062.00
2022-09-20T21:19:56.439Z,102082.00
2022-09-20T21:30:18.639Z,102079.00
2022-09-20T21:40:41.857Z,102086.00
2022-09-20T21:51:06.203Z,102100.00
2022-09-20T22:01:30.298Z,102111.00
2022-09-20T22:11:51.829Z,102111.00
2022-09-20T22:22:14.534Z,102113.00
2022-09-20T22:32:35.760Z,102108.00
2022-09-20T22:42:58.534Z,102119.00
2022-09-20T22:53:19.902Z,102122.00
2022-09-20T23:03:44.750Z,102118.00
2022-09-20T23:14:07.408Z,102116.00
2022-09-20T23:24:31.068Z,102119.00
2022-09-20T23:34:52.917Z,102132.00
2022-09-20T23:45:15.646Z,102140.00
2022-09-20T23:55:36.985Z,102140.00
